Columbus, New Mexico
Current Conditions -  °F | °C
As of 1:53 AM on Thursday 27 Nov 2014 (Local Time) from KDMN Reporting Station
Clear Clear  
Wind Chill: 34°   Ceiling: Unl
Heat Index: 34°   Visibility: 10mi
Dew Point: 18°   Wind: 0mph
Humidity: 52%   Direction: NA
Pressure: 30.38"   Gusts: NA
Location:  31.83°N, 107.64°W
Report Text: KDMN 270853Z AUTO 00000KT 10SM CLR 01/M08 A3038 RMK AO2 SLP259 T00111078 51007
Loading
Personal Weather Stations






























Interactive Weather Map New forecast layout! Learn more

10-Day Weather Forecast

Advertisements
Track Severe Weather on mobile